Time;durP1;ratioP1;P1;durP2;ratioP2;P2;SDS_P1;SDS_P2;PMS_P1;PMS_P2;Temp;Humidity;BMP_temperature;BMP_pressure;BME280_temperature;BME280_humidity;BME280_pressure;Samples;Min_cycle;Max_cycle;Signal;HPM_P1;HPM_P2
2022/01/19 00:00:45;;;;;;;12.53;5.10;;;;;;;18.62;44.52;101958.81;5047441;28;20427;-59
2022/01/19 00:03:11;;;;;;;11.53;5.40;;;;;;;18.64;44.65;101947.91;5042012;28;20466;-60
2022/01/19 00:05:37;;;;;;;11.10;4.87;;;;;;;18.66;44.65;101948.38;5042414;28;20199;-59
2022/01/19 00:08:02;;;;;;;13.00;4.60;;;;;;;18.60;45.28;101941.19;5048426;28;20237;-59
2022/01/19 00:10:28;;;;;;;11.33;5.30;;;;;;;18.55;45.41;101926.22;5040569;28;20545;-59
2022/01/19 00:12:55;;;;;;;7.80;4.10;;;;;;;18.58;45.20;101920.66;5042196;28;20171;-59
2022/01/19 00:15:21;;;;;;;9.87;5.00;;;;;;;18.59;45.58;101905.19;5046874;28;20670;-59
2022/01/19 00:17:46;;;;;;;8.33;4.33;;;;;;;18.58;45.35;101892.06;5040384;28;20752;-59
2022/01/19 00:20:12;;;;;;;11.47;5.00;;;;;;;18.54;45.76;101879.63;5041090;28;20426;-59
2022/01/19 00:22:37;;;;;;;6.93;4.30;;;;;;;18.53;45.96;101882.81;5047457;28;20183;-59
2022/01/19 00:25:05;;;;;;;10.83;4.50;;;;;;;18.55;46.00;101887.03;5051517;28;20179;-59
2022/01/19 00:27:30;;;;;;;11.50;4.37;;;;;;;18.49;46.08;101894.13;5020225;28;20979;-59
2022/01/19 00:29:56;;;;;;;8.97;4.50;;;;;;;18.52;46.26;101893.41;5049927;28;20496;-59
2022/01/19 00:32:23;;;;;;;8.93;4.60;;;;;;;18.53;46.05;101892.25;5045483;28;20191;-60
2022/01/19 00:34:49;;;;;;;12.13;4.60;;;;;;;18.52;46.44;101896.28;5031357;28;20172;-60
2022/01/19 00:37:14;;;;;;;8.83;4.53;;;;;;;18.54;46.31;101901.66;5031340;28;20416;-60
2022/01/19 00:39:40;;;;;;;18.63;5.70;;;;;;;18.53;46.42;101908.56;5031271;28;20667;-59
2022/01/19 00:42:05;;;;;;;7.03;3.80;;;;;;;18.53;46.76;101900.84;5031633;28;20176;-60
2022/01/19 00:44:31;;;;;;;15.20;4.60;;;;;;;18.53;46.88;101908.56;5031289;28;20179;-59
2022/01/19 00:46:56;;;;;;;8.30;4.60;;;;;;;18.51;46.64;101890.91;5013927;28;20184;-59
2022/01/19 00:49:22;;;;;;;8.90;4.67;;;;;;;18.52;46.52;101886.88;5031623;28;20274;-59
2022/01/19 00:51:47;;;;;;;10.30;4.00;;;;;;;18.50;46.63;101872.91;5031329;28;20199;-59
2022/01/19 00:54:13;;;;;;;7.90;4.50;;;;;;;18.49;47.04;101867.53;5030846;28;20567;-59
2022/01/19 00:56:38;;;;;;;7.47;3.77;;;;;;;18.47;47.27;101856.41;5031713;28;20674;-60
2022/01/19 00:59:03;;;;;;;10.00;4.37;;;;;;;18.56;46.70;101822.91;5042608;28;20184;-59
2022/01/19 01:01:29;;;;;;;8.03;4.33;;;;;;;18.49;46.81;101796.88;5051035;28;20322;-59
2022/01/19 01:03:54;;;;;;;8.40;4.10;;;;;;;18.47;47.15;101786.97;5047646;28;20183;-59
2022/01/19 01:06:20;;;;;;;8.83;4.40;;;;;;;18.50;47.12;101789.97;5030650;28;20200;-60
2022/01/19 01:08:45;;;;;;;7.63;3.67;;;;;;;18.50;47.03;101784.25;5031739;28;20269;-59
2022/01/19 01:11:11;;;;;;;7.30;4.13;;;;;;;18.49;47.30;101785.44;5046177;28;20225;-59
2022/01/19 01:16:50;;;;;;;5.90;3.87;;;;;;;18.56;47.17;101780.00;5030849;28;20242;-59
2022/01/19 01:19:16;;;;;;;8.53;3.90;;;;;;;18.50;47.68;101769.94;5047759;28;20418;-60
2022/01/19 01:21:41;;;;;;;7.67;4.27;;;;;;;18.54;47.27;101762.38;5050127;28;20506;-59
2022/01/19 01:24:07;;;;;;;7.47;3.70;;;;;;;18.48;47.56;101758.03;5050790;28;20176;-59
2022/01/19 01:26:32;;;;;;;8.97;4.10;;;;;;;18.51;47.52;101743.03;5050648;28;20176;-59
2022/01/19 01:28:58;;;;;;;9.43;4.40;;;;;;;18.52;47.43;101744.69;5049842;28;20203;-60
2022/01/19 01:31:23;;;;;;;6.73;4.10;;;;;;;18.49;47.73;101728.25;5049577;28;20176;-59
2022/01/19 01:33:49;;;;;;;7.17;4.07;;;;;;;18.51;48.06;101730.75;5047145;28;20226;-59
2022/01/19 01:36:14;;;;;;;6.50;4.00;;;;;;;18.47;47.50;101744.88;5050862;28;20192;-59
2022/01/19 01:38:40;;;;;;;8.93;4.20;;;;;;;18.44;47.68;101759.91;5048355;28;20180;-59
2022/01/19 01:41:08;;;;;;;5.33;3.33;;;;;;;18.51;47.71;101765.09;5036344;28;20176;-59
2022/01/19 01:43:34;;;;;;;7.87;3.63;;;;;;;18.52;48.01;101781.06;5028556;28;20203;-60
2022/01/19 01:46:04;;;;;;;9.33;4.60;;;;;;;18.50;47.79;101781.38;5030107;28;20426;-59
2022/01/19 01:48:30;;;;;;;8.60;3.80;;;;;;;18.47;47.99;101782.06;5049292;28;20631;-60
2022/01/19 01:53:40;;;;;;;8.40;4.60;;;;;;;18.47;47.97;101761.22;5050241;28;20183;-60
2022/01/19 01:56:10;;;;;;;8.70;3.90;;;;;;;18.45;48.16;101753.00;5050335;28;20857;-59
2022/01/19 01:58:40;;;;;;;6.63;3.50;;;;;;;18.43;48.31;101751.66;5050084;28;20195;-60
2022/01/19 02:01:06;;;;;;;6.33;3.83;;;;;;;18.43;48.43;101749.66;5049314;28;20418;-59
2022/01/19 02:03:38;;;;;;;8.80;4.20;;;;;;;18.42;48.25;101750.00;5049895;28;20940;-58
2022/01/19 02:08:46;;;;;;;8.83;3.87;;;;;;;18.43;48.49;101746.78;5033509;28;20746;-59
2022/01/19 02:21:58;;;;;;;6.23;3.97;;;;;;;18.43;48.32;101700.19;5049812;28;20943;-59
2022/01/19 02:24:28;;;;;;;7.60;4.10;;;;;;;18.41;48.44;101694.00;5049562;28;20426;-59
2022/01/19 02:40:29;;;;;;;6.50;3.37;;;;;;;18.44;48.64;101685.56;5013815;28;20561;-59
2022/01/19 02:50:54;;;;;;;5.87;3.80;;;;;;;18.44;48.64;101662.66;5028869;28;20569;-59
2022/01/19 02:53:20;;;;;;;6.33;3.83;;;;;;;18.45;48.63;101652.06;5029313;28;20898;-59
2022/01/19 02:55:46;;;;;;;6.17;3.53;;;;;;;18.41;48.59;101654.78;5029456;28;20179;-59
2022/01/19 02:58:14;;;;;;;6.20;3.77;;;;;;;18.49;48.60;101653.88;5034780;28;20252;-59
2022/01/19 03:08:55;;;;;;;8.73;2.87;;;;;;;18.45;48.75;101643.47;5048635;28;20496;-59
2022/01/19 03:11:22;;;;;;;5.10;3.10;;;;;;;18.42;48.90;101647.88;5045830;28;20430;-59
2022/01/19 03:13:48;;;;;;;7.83;3.27;;;;;;;18.40;48.81;101641.66;5049158;28;20639;-59
2022/01/19 03:16:14;;;;;;;5.60;3.67;;;;;;;18.43;48.69;101635.28;5048110;28;20467;-59
2022/01/19 03:18:39;;;;;;;5.30;3.47;;;;;;;18.36;49.09;101632.09;5048661;28;20184;-59
2022/01/19 03:21:05;;;;;;;7.00;3.30;;;;;;;18.38;48.94;101626.91;5045171;28;20523;-59
2022/01/19 03:23:31;;;;;;;5.57;3.10;;;;;;;18.40;48.80;101638.81;5048262;28;20180;-60
2022/01/19 03:25:57;;;;;;;9.97;3.87;;;;;;;18.42;49.07;101629.91;5049299;28;20472;-59
2022/01/19 03:28:23;;;;;;;5.90;3.57;;;;;;;18.40;49.04;101633.09;5049255;28;20188;-59
2022/01/19 03:30:48;;;;;;;5.27;3.57;;;;;;;18.38;49.04;101629.75;5048522;28;20765;-59
2022/01/19 03:33:14;;;;;;;5.60;3.20;;;;;;;18.40;48.91;101633.09;5035520;28;20181;-59
2022/01/19 03:35:39;;;;;;;7.57;2.87;;;;;;;18.38;48.85;101624.03;5031201;28;20173;-59
2022/01/19 03:38:06;;;;;;;6.33;3.60;;;;;;;18.39;48.91;101630.56;5029267;28;20172;-59
2022/01/19 03:40:31;;;;;;;5.83;4.13;;;;;;;18.36;49.16;101622.72;5046207;28;20176;-59
2022/01/19 03:42:57;;;;;;;6.13;3.60;;;;;;;18.35;49.12;101619.00;5048961;28;20879;-59
2022/01/19 03:45:22;;;;;;;5.50;3.47;;;;;;;18.39;48.99;101617.13;5048948;28;20580;-59
2022/01/19 03:47:55;;;;;;;6.33;3.67;;;;;;;18.41;48.72;101611.06;5041955;28;20168;-59
2022/01/19 03:50:20;;;;;;;4.73;3.37;;;;;;;18.39;49.08;101611.41;5048052;28;20192;-59
2022/01/19 03:52:46;;;;;;;4.87;3.20;;;;;;;18.41;48.95;101611.88;5048561;28;20432;-59
2022/01/19 03:55:11;;;;;;;5.13;3.40;;;;;;;18.40;48.74;101610.22;5051307;28;20176;-59
2022/01/19 03:57:37;;;;;;;5.30;3.20;;;;;;;18.41;49.13;101609.03;5041041;28;20738;-59
2022/01/19 04:00:04;;;;;;;5.23;2.93;;;;;;;18.43;48.83;101606.69;5051953;28;20175;-59
2022/01/19 04:02:29;;;;;;;6.27;3.57;;;;;;;18.39;49.04;101605.69;5052253;28;20227;-59
2022/01/19 04:05:02;;;;;;;6.87;3.33;;;;;;;18.38;49.29;101604.03;5051682;28;20426;-59
2022/01/19 04:07:28;;;;;;;7.17;3.43;;;;;;;18.39;49.00;101596.25;5052333;28;20252;-60
2022/01/19 04:09:53;;;;;;;4.57;3.17;;;;;;;18.37;49.29;101607.22;5051466;28;20977;-59
2022/01/19 04:12:31;;;;;;;5.30;3.00;;;;;;;18.36;49.18;101592.09;5052494;28;20195;-59
2022/01/19 04:14:56;;;;;;;6.77;3.67;;;;;;;18.41;49.00;101594.72;5051873;28;20612;-60
2022/01/19 04:17:22;;;;;;;7.43;4.37;;;;;;;18.39;49.35;101585.69;5051467;28;20464;-59
2022/01/19 04:19:48;;;;;;;4.40;2.80;;;;;;;18.39;49.17;101579.13;5047978;28;20243;-59
2022/01/19 04:22:18;;;;;;;6.17;3.83;;;;;;;18.41;49.07;101571.84;5052011;28;20176;-59
2022/01/19 04:24:44;;;;;;;7.50;3.53;;;;;;;18.41;48.87;101568.19;5052031;28;20464;-60
2022/01/19 04:29:42;;;;;;;7.13;3.43;;;;;;;18.38;49.25;101569.72;5051034;28;20203;-59
2022/01/19 04:32:12;;;;;;;4.83;2.67;;;;;;;18.35;49.38;101578.97;5047431;28;20565;-59
2022/01/19 04:34:39;;;;;;;5.30;2.97;;;;;;;18.35;49.50;101575.28;5014694;28;20411;-59
2022/01/19 04:54:40;;;;;;;5.43;2.83;;;;;;;18.38;49.10;101568.88;5031228;28;20501;-59
2022/01/19 05:02:03;;;;;;;5.70;2.80;;;;;;;18.36;49.28;101569.22;5049779;28;20476;-59
2022/01/19 05:07:12;;;;;;;4.70;3.00;;;;;;;18.42;49.21;101562.09;5050326;28;20442;-59
2022/01/19 05:14:47;;;;;;;6.77;3.30;;;;;;;18.39;49.39;101564.81;5050596;28;20194;-59
2022/01/19 05:17:13;;;;;;;4.77;3.07;;;;;;;18.41;49.33;101565.31;5046085;28;20429;-59
2022/01/19 05:19:38;;;;;;;5.27;3.03;;;;;;;18.40;49.41;101573.06;5032684;28;20183;-59
2022/01/19 05:22:03;;;;;;;4.10;2.70;;;;;;;18.38;49.50;101566.84;5013296;28;20173;-59
2022/01/19 05:24:29;;;;;;;4.60;3.03;;;;;;;18.39;49.12;101574.25;5030363;28;20691;-59
2022/01/19 05:26:54;;;;;;;4.77;3.10;;;;;;;18.46;48.79;101562.25;5029837;28;20333;-59
2022/01/19 05:29:20;;;;;;;5.30;3.33;;;;;;;18.39;49.44;101565.66;5046581;28;20286;-59
2022/01/19 05:31:45;;;;;;;4.57;3.00;;;;;;;18.40;49.46;101558.75;5050665;28;20175;-59
2022/01/19 05:34:11;;;;;;;5.80;2.90;;;;;;;18.43;49.09;101562.94;5050278;28;20172;-59
2022/01/19 05:36:36;;;;;;;6.83;3.40;;;;;;;18.41;49.14;101559.59;5050879;28;20168;-59
2022/01/19 05:39:05;;;;;;;4.50;2.60;;;;;;;18.40;49.22;101553.03;5049654;28;20176;-59
2022/01/19 05:41:31;;;;;;;3.80;2.60;;;;;;;18.40;49.52;101547.31;5050141;28;20182;-59
2022/01/19 05:43:56;;;;;;;5.73;3.10;;;;;;;18.38;49.43;101543.97;5047280;28;20417;-59
2022/01/19 05:46:22;;;;;;;4.13;2.70;;;;;;;18.37;49.23;101539.44;5049817;28;20774;-59
2022/01/19 05:48:47;;;;;;;6.90;3.30;;;;;;;18.38;49.65;101546.00;5032674;28;20172;-59
2022/01/19 05:51:12;;;;;;;5.10;2.83;;;;;;;18.38;49.55;101546.84;5042954;28;20180;-59
2022/01/19 05:53:38;;;;;;;5.30;3.20;;;;;;;18.36;49.32;101534.91;5030338;28;20173;-59
2022/01/19 05:56:04;;;;;;;4.70;2.70;;;;;;;18.39;49.03;101539.94;5043359;28;20175;-59
2022/01/19 05:58:29;;;;;;;5.43;3.73;;;;;;;18.37;49.39;101541.47;5031826;28;20183;-59
2022/01/19 06:00:55;;;;;;;4.57;2.50;;;;;;;18.37;49.32;101541.47;5049864;28;20580;-59
2022/01/19 06:03:20;;;;;;;5.20;3.23;;;;;;;18.41;49.17;101553.88;5049724;28;20231;-59
2022/01/19 06:05:45;;;;;;;3.50;2.33;;;;;;;18.38;49.26;101557.44;5049465;28;20191;-59
2022/01/19 06:08:18;;;;;;;5.10;3.07;;;;;;;18.41;49.97;101553.88;5049436;28;20211;-59
2022/01/19 06:10:47;;;;;;;4.60;2.70;;;;;;;18.42;49.30;101547.78;5049223;28;20549;-59
2022/01/19 06:13:17;;;;;;;6.17;3.10;;;;;;;18.38;49.52;101552.56;5047156;28;20422;-59
2022/01/19 06:15:43;;;;;;;5.80;3.37;;;;;;;18.39;49.17;101545.66;5029325;28;20505;-59
2022/01/19 06:18:08;;;;;;;4.13;2.93;;;;;;;18.41;49.08;101546.13;5039381;28;20437;-59
2022/01/19 06:20:34;;;;;;;5.20;3.07;;;;;;;18.39;49.41;101548.50;5049339;28;20198;-59
2022/01/19 06:22:59;;;;;;;3.77;2.63;;;;;;;18.38;49.32;101555.41;5049696;28;20183;-59
2022/01/19 06:25:25;;;;;;;5.17;2.63;;;;;;;18.36;49.66;101545.53;5049772;28;20172;-59
2022/01/19 06:27:50;;;;;;;4.90;2.90;;;;;;;18.39;49.30;101539.94;5049525;28;20187;-59
2022/01/19 06:30:16;;;;;;;6.00;2.90;;;;;;;18.40;49.15;101541.59;5049408;28;20195;-59
2022/01/19 06:32:41;;;;;;;4.30;2.87;;;;;;;18.41;49.34;101537.53;5040850;28;20210;-59
2022/01/19 06:35:07;;;;;;;4.90;2.83;;;;;;;18.42;49.30;101536.34;5029274;28;20176;-59
2022/01/19 06:37:33;;;;;;;5.80;3.03;;;;;;;18.39;49.35;101539.09;5029867;28;20180;-59
2022/01/19 06:39:58;;;;;;;5.17;3.00;;;;;;;18.40;49.32;101533.03;5028987;28;20427;-59
2022/01/19 06:42:24;;;;;;;4.70;2.93;;;;;;;18.41;49.34;101531.81;5029534;28;20513;-59
2022/01/19 06:44:49;;;;;;;4.60;2.93;;;;;;;18.46;49.04;101527.94;5029700;28;20175;-59
2022/01/19 06:47:14;;;;;;;4.13;2.70;;;;;;;18.42;49.37;101524.91;5029557;28;20177;-59
2022/01/19 06:49:40;;;;;;;4.20;3.10;;;;;;;18.44;49.63;101513.97;5029136;28;20211;-59
2022/01/19 06:52:06;;;;;;;4.93;3.17;;;;;;;18.44;49.16;101516.00;5031414;28;20578;-59
2022/01/19 06:54:31;;;;;;;4.23;2.73;;;;;;;18.42;49.38;101515.53;5029707;28;20212;-59
2022/01/19 06:56:56;;;;;;;5.10;3.23;;;;;;;18.40;49.30;101520.72;5029691;28;20180;-59
2022/01/19 06:59:22;;;;;;;5.17;3.07;;;;;;;18.37;49.51;101524.31;5043361;28;20180;-59
2022/01/19 07:01:47;;;;;;;4.93;3.03;;;;;;;18.39;49.25;101508.47;5048794;28;20235;-59
2022/01/19 07:04:15;;;;;;;4.30;2.60;;;;;;;18.37;49.33;101505.13;5049287;28;20183;-59
2022/01/19 07:06:41;;;;;;;7.43;3.43;;;;;;;18.41;49.33;101514.66;5049548;28;20204;-59
2022/01/19 07:09:06;;;;;;;5.10;2.80;;;;;;;18.45;49.06;101500.50;5049320;28;20421;-59
2022/01/19 07:11:32;;;;;;;5.67;3.20;;;;;;;18.41;49.39;101513.84;5030570;28;20176;-59
2022/01/19 07:13:57;;;;;;;4.97;2.47;;;;;;;18.40;49.44;101510.16;5048621;28;20195;-59
2022/01/19 07:16:23;;;;;;;5.40;2.90;;;;;;;18.39;49.60;101516.22;5048350;28;20510;-59
2022/01/19 07:18:49;;;;;;;4.87;3.00;;;;;;;18.44;49.24;101513.13;5046769;28;20181;-59
2022/01/19 07:21:18;;;;;;;4.90;3.20;;;;;;;18.41;49.56;101508.13;5029970;28;20215;-59
2022/01/19 07:23:43;;;;;;;3.83;2.63;;;;;;;18.40;49.45;101512.16;5029032;28;20426;-59
2022/01/19 07:26:08;;;;;;;4.57;2.70;;;;;;;18.35;49.72;101510.38;5029285;28;20427;-59
2022/01/19 07:28:34;;;;;;;5.30;3.00;;;;;;;18.37;49.33;101510.84;5031351;28;20196;-59
2022/01/19 07:30:59;;;;;;;4.13;2.60;;;;;;;18.39;49.74;101516.22;5030359;28;20207;-60
2022/01/19 07:33:25;;;;;;;14.63;7.73;;;;;;;17.91;47.61;101510.22;5031791;28;20188;-58
2022/01/19 07:35:51;;;;;;;21.10;12.70;;;;;;;17.34;41.47;101507.00;5033655;28;20655;-59
2022/01/19 07:38:18;;;;;;;18.07;12.20;;;;;;;17.66;40.27;101509.19;5033073;28;20180;-59
2022/01/19 07:40:43;;;;;;;21.23;12.77;;;;;;;18.37;41.43;101518.59;5030156;28;20476;-59
2022/01/19 07:43:09;;;;;;;19.43;13.13;;;;;;;18.57;41.77;101512.81;5032067;28;20415;-59
2022/01/19 07:45:34;;;;;;;19.00;11.50;;;;;;;18.74;41.80;101512.66;5039557;28;20179;-59
2022/01/19 07:48:00;;;;;;;16.93;12.27;;;;;;;18.93;42.32;101500.66;5051425;28;20680;-59
2022/01/19 07:50:25;;;;;;;16.90;10.53;;;;;;;19.00;41.58;101507.47;5051955;28;20203;-58
2022/01/19 07:52:51;;;;;;;17.60;10.97;;;;;;;19.31;41.20;101507.78;5051927;28;20529;-59
2022/01/19 07:55:16;;;;;;;15.50;10.30;;;;;;;19.32;41.12;101500.84;5046626;28;20540;-59
2022/01/19 07:57:47;;;;;;;14.80;10.87;;;;;;;19.49;40.95;101508.38;5051388;28;20176;-59
2022/01/19 08:00:13;;;;;;;20.13;11.00;;;;;;;19.64;40.99;101505.63;5047172;28;20183;-59
2022/01/19 08:02:40;;;;;;;17.23;10.77;;;;;;;19.71;40.71;101499.31;5051245;28;20557;-59
2022/01/19 08:05:07;;;;;;;17.80;9.70;;;;;;;19.49;41.08;101497.78;5052402;28;20476;-59
2022/01/19 08:07:33;;;;;;;14.53;9.73;;;;;;;19.51;41.73;101495.38;5050441;28;20445;-59
2022/01/19 08:09:59;;;;;;;16.33;10.00;;;;;;;19.62;42.37;101496.53;5047950;28;20500;-59
2022/01/19 08:12:25;;;;;;;13.33;9.83;;;;;;;19.51;42.29;101491.69;5051676;28;20480;-59
2022/01/19 08:14:50;;;;;;;14.67;9.47;;;;;;;19.46;42.64;101504.19;5051508;28;20195;-60
2022/01/19 08:17:16;;;;;;;15.57;10.97;;;;;;;19.22;43.69;101504.19;5051385;28;20164;-59
2022/01/19 08:19:41;;;;;;;17.10;9.20;;;;;;;19.24;44.17;101510.41;5051585;28;20180;-60
2022/01/19 08:22:07;;;;;;;13.50;9.07;;;;;;;19.13;44.97;101503.44;5051511;28;20206;-58
2022/01/19 08:24:32;;;;;;;15.53;9.57;;;;;;;19.05;45.36;101495.78;5051450;28;20184;-59
2022/01/19 08:26:58;;;;;;;16.03;9.23;;;;;;;19.01;45.32;101506.28;5051301;28;20172;-59
2022/01/19 08:29:23;;;;;;;12.17;8.30;;;;;;;18.99;44.86;101494.38;5051258;28;20204;-59
2022/01/19 08:31:49;;;;;;;13.60;8.57;;;;;;;19.01;45.23;101499.75;5032697;28;20184;-58
2022/01/19 08:34:15;;;;;;;13.10;8.77;;;;;;;18.93;44.69;101503.53;5051152;28;20183;-58
2022/01/19 08:36:41;;;;;;;14.97;8.20;;;;;;;18.84;45.00;101509.34;5051915;28;20514;-59
2022/01/19 08:39:07;;;;;;;14.07;8.43;;;;;;;18.80;44.54;101505.53;5051273;28;20646;-60
2022/01/19 08:41:32;;;;;;;12.60;9.07;;;;;;;18.72;45.05;101511.34;5031765;28;20430;-59
2022/01/19 08:43:58;;;;;;;13.53;8.20;;;;;;;18.72;45.37;101503.56;5051336;28;20175;-59
2022/01/19 08:46:24;;;;;;;14.73;8.67;;;;;;;18.68;45.85;101516.94;5050959;28;20313;-59
2022/01/19 08:48:49;;;;;;;12.43;7.90;;;;;;;18.57;44.69;101520.59;5032693;28;20933;-59
2022/01/19 08:51:15;;;;;;;10.83;7.93;;;;;;;18.49;44.59;101515.78;5051373;28;20211;-59
2022/01/19 08:53:40;;;;;;;13.03;8.80;;;;;;;18.41;43.89;101526.09;5051564;28;20237;-59
2022/01/19 08:56:06;;;;;;;14.10;8.90;;;;;;;18.42;43.83;101527.78;5050399;28;20203;-60
2022/01/19 08:58:31;;;;;;;18.87;7.90;;;;;;;18.40;43.93;101535.88;5044617;28;20184;-59
2022/01/19 09:00:56;;;;;;;20.33;9.10;;;;;;;18.45;45.11;101540.53;5051065;28;20172;-60
2022/01/19 09:03:22;;;;;;;18.40;8.87;;;;;;;18.51;45.48;101544.88;5050285;28;20235;-59
2022/01/19 09:05:47;;;;;;;15.83;8.40;;;;;;;18.49;45.92;101535.78;5029273;28;20234;-59
2022/01/19 09:08:13;;;;;;;26.60;7.87;;;;;;;18.53;46.40;101540.47;5035142;28;20226;-59
2022/01/19 09:10:40;;;;;;;21.37;9.03;;;;;;;18.54;46.49;101536.44;5047828;28;20211;-59
2022/01/19 09:13:06;;;;;;;18.43;8.10;;;;;;;18.60;46.64;101531.31;5032156;28;20636;-59
2022/01/19 09:15:31;;;;;;;17.60;8.00;;;;;;;18.66;46.19;101545.03;5029848;28;20950;-59
2022/01/19 09:17:57;;;;;;;15.67;8.43;;;;;;;18.65;46.83;101543.38;5036188;28;20797;-59
2022/01/19 09:20:22;;;;;;;19.57;8.90;;;;;;;18.68;46.94;101542.69;5047363;28;20623;-59
2022/01/19 09:22:49;;;;;;;14.57;6.70;;;;;;;18.69;46.76;101532.06;5032666;28;20191;-59
2022/01/19 09:25:14;;;;;;;21.23;8.10;;;;;;;18.71;46.71;101530.53;5030283;28;20234;-59
2022/01/19 09:27:40;;;;;;;21.20;7.60;;;;;;;18.64;47.32;101530.28;5031330;28;20427;-59
2022/01/19 09:30:07;;;;;;;18.50;7.67;;;;;;;18.66;47.54;101527.88;5050368;28;20309;-59
2022/01/19 09:32:33;;;;;;;12.30;6.67;;;;;;;18.69;47.07;101520.63;5042678;28;20184;-59
2022/01/19 09:35:06;;;;;;;11.20;6.93;;;;;;;18.68;47.27;101516.94;5030638;28;20795;-59
2022/01/19 09:37:32;;;;;;;14.70;7.37;;;;;;;18.68;47.63;101508.34;5030570;28;20472;-59
2022/01/19 09:39:57;;;;;;;16.00;7.10;;;;;;;18.68;47.51;101507.50;5028550;28;20822;-59
2022/01/19 09:42:22;;;;;;;16.13;6.20;;;;;;;18.68;47.64;101502.63;5029954;28;20589;-59
2022/01/19 09:44:48;;;;;;;21.70;6.97;;;;;;;18.66;47.67;101499.28;5030237;28;20180;-59
2022/01/19 09:47:13;;;;;;;11.43;7.00;;;;;;;18.65;47.78;101499.63;5032973;28;20232;-59
2022/01/19 09:49:39;;;;;;;16.67;6.70;;;;;;;18.70;47.75;101505.13;5030561;28;20208;-59
2022/01/19 09:52:05;;;;;;;12.87;6.53;;;;;;;18.69;47.66;101504.31;5047583;28;20172;-59
2022/01/19 09:54:30;;;;;;;14.67;7.17;;;;;;;18.69;47.85;101504.31;5049749;28;20176;-59
2022/01/19 09:56:56;;;;;;;13.83;6.33;;;;;;;18.71;47.62;101498.25;5050249;28;20318;-59
2022/01/19 09:59:22;;;;;;;10.00;5.50;;;;;;;18.73;47.79;101502.41;5031638;28;20207;-59
2022/01/19 10:01:51;;;;;;;12.13;6.30;;;;;;;18.72;48.10;101497.84;5045652;28;20316;-59
2022/01/19 10:04:17;;;;;;;10.37;6.10;;;;;;;18.70;48.07;101493.69;5032000;28;20246;-59
2022/01/19 10:06:43;;;;;;;12.07;6.67;;;;;;;18.72;48.51;101502.75;5029954;28;20492;-59
2022/01/19 10:09:08;;;;;;;12.60;6.20;;;;;;;18.69;48.34;101487.13;5011587;28;20431;-59
2022/01/19 10:17:00;;;;;;;10.97;6.17;;;;;;;18.68;48.50;101479.75;5029847;28;20276;-59
2022/01/19 10:19:33;;;;;;;11.53;5.73;;;;;;;18.68;48.48;101476.03;5029447;28;21184;-59
2022/01/19 10:22:06;;;;;;;9.73;6.30;;;;;;;18.71;48.13;101478.22;5029927;28;20839;-59
2022/01/19 10:24:52;;;;;;;9.60;6.27;;;;;;;18.72;48.31;101463.53;5029839;28;20561;-59
2022/01/19 10:27:27;;;;;;;14.30;5.57;;;;;;;18.72;48.35;101459.84;5016301;28;20470;-59
2022/01/19 10:30:02;;;;;;;9.60;5.47;;;;;;;18.69;48.77;101457.69;5047605;28;20940;-59
2022/01/19 10:32:27;;;;;;;12.70;6.00;;;;;;;18.67;48.99;101449.44;5041917;28;20427;-59
2022/01/19 10:34:53;;;;;;;9.73;5.00;;;;;;;18.72;48.46;101448.41;5029697;28;20519;-59
2022/01/19 10:37:26;;;;;;;9.00;5.80;;;;;;;18.72;48.52;101437.78;5030091;28;20176;-59
2022/01/19 10:39:54;;;;;;;10.40;6.10;;;;;;;18.69;48.67;101435.66;5029192;28;20183;-59
2022/01/19 10:42:21;;;;;;;10.70;5.57;;;;;;;18.72;48.55;101431.25;5029390;28;20477;-59
2022/01/19 10:44:58;;;;;;;9.63;5.80;;;;;;;18.74;48.79;101414.53;5029469;28;20416;-59
2022/01/19 10:47:41;;;;;;;8.57;5.00;;;;;;;18.72;48.63;101417.75;5029865;28;20413;-59
2022/01/19 10:50:12;;;;;;;9.80;5.80;;;;;;;18.70;48.54;101423.00;5029665;28;20596;-59
2022/01/19 10:52:40;;;;;;;11.93;5.40;;;;;;;18.75;48.63;101410.50;5028863;28;20415;-59
2022/01/19 10:55:11;;;;;;;13.37;5.63;;;;;;;18.75;48.39;101411.34;5029529;28;20415;-59
2022/01/19 10:57:37;;;;;;;10.33;4.73;;;;;;;18.75;48.58;101419.91;5029724;28;20475;-59
2022/01/19 11:00:18;;;;;;;9.13;5.40;;;;;;;18.75;48.72;101419.06;5029191;28;20427;-59
2022/01/19 11:02:43;;;;;;;8.80;5.03;;;;;;;18.77;48.78;101420.38;5042774;28;20569;-59
2022/01/19 11:05:09;;;;;;;9.30;5.00;;;;;;;18.80;48.44;101425.41;5036232;28;20423;-59
2022/01/19 11:07:35;;;;;;;15.23;5.90;;;;;;;18.77;48.68;101413.84;5015935;28;20192;-59
2022/01/19 11:10:09;;;;;;;7.27;4.60;;;;;;;18.75;48.88;101410.50;5032943;28;20258;-59
2022/01/19 11:12:40;;;;;;;9.43;4.67;;;;;;;18.78;48.71;101410.63;5046742;28;20225;-59
2022/01/19 11:15:07;;;;;;;12.33;6.60;;;;;;;18.78;48.55;101404.91;5051162;28;20995;-59
2022/01/19 11:17:33;;;;;;;8.93;5.03;;;;;;;18.78;48.72;101404.06;5033127;28;20414;-59
2022/01/19 11:20:11;;;;;;;13.40;5.33;;;;;;;18.82;48.71;101394.41;5052166;28;20920;-59
2022/01/19 11:22:52;;;;;;;10.40;5.10;;;;;;;18.83;48.88;101401.81;5036870;28;20203;-59
2022/01/19 11:25:27;;;;;;;8.70;6.00;;;;;;;18.83;48.71;101407.53;5033109;28;20501;-59
2022/01/19 11:27:53;;;;;;;9.20;5.13;;;;;;;18.82;48.67;101400.13;5018121;28;20513;-59
2022/01/19 11:30:24;;;;;;;11.10;5.40;;;;;;;18.81;48.74;101395.59;5034418;28;20462;-59
2022/01/19 11:33:11;;;;;;;7.10;5.10;;;;;;;18.80;48.89;101393.94;5042658;28;20184;-59
2022/01/19 11:35:37;;;;;;;9.33;4.87;;;;;;;18.78;49.01;101382.03;5033164;28;20407;-59
2022/01/19 11:38:31;;;;;;;7.70;4.90;;;;;;;18.79;48.90;101386.56;5032236;28;20435;-58
2022/01/19 11:40:57;;;;;;;8.97;4.70;;;;;;;18.82;49.02;101380.09;5032944;28;20173;-59
2022/01/19 11:43:25;;;;;;;8.37;4.53;;;;;;;18.78;48.97;101378.31;5032603;28;20423;-59
2022/01/19 11:45:51;;;;;;;6.53;4.93;;;;;;;18.81;49.13;101369.03;5035095;28;20427;-59
2022/01/19 11:48:22;;;;;;;7.60;4.80;;;;;;;18.82;49.08;101371.53;5032634;28;20930;-59
2022/01/19 11:50:47;;;;;;;9.77;5.00;;;;;;;18.75;49.31;101353.28;5034673;28;20219;-59
2022/01/19 11:53:13;;;;;;;8.97;5.10;;;;;;;18.78;49.27;101361.16;5032611;28;20423;-59
2022/01/19 11:55:40;;;;;;;8.30;4.80;;;;;;;18.76;49.27;101364.38;5032451;28;20250;-59
2022/01/19 11:58:20;;;;;;;8.57;4.50;;;;;;;18.75;49.18;101342.69;5036164;28;20187;-59
2022/01/19 12:00:49;;;;;;;8.30;4.87;;;;;;;18.74;49.40;101349.59;5047962;28;20510;-59
2022/01/19 12:03:35;;;;;;;7.13;4.40;;;;;;;18.72;49.57;101342.56;5032611;28;20474;-59
2022/01/19 12:06:00;;;;;;;8.77;5.10;;;;;;;18.74;49.35;101317.28;5014141;28;20954;-59
2022/01/19 12:08:36;;;;;;;8.10;4.70;;;;;;;18.71;49.52;101318.84;5032349;28;20433;-59
2022/01/19 12:11:11;;;;;;;5.60;3.80;;;;;;;18.70;49.54;101311.44;5032198;28;20204;-59
2022/01/19 12:16:25;;;;;;;6.70;4.00;;;;;;;18.67;49.53;101315.00;5031932;28;20396;-59
2022/01/19 12:18:53;;;;;;;6.93;4.23;;;;;;;18.73;49.32;101307.88;5041014;28;20540;-59
2022/01/19 12:21:21;;;;;;;8.03;4.83;;;;;;;18.73;49.68;101307.03;5039640;28;20785;-59
2022/01/19 12:23:47;;;;;;;9.43;4.77;;;;;;;18.72;49.55;101309.06;5032037;28;20504;-59
2022/01/19 12:26:13;;;;;;;10.87;4.60;;;;;;;18.72;49.54;101302.53;5031481;28;20423;-59
2022/01/19 12:28:53;;;;;;;6.40;4.03;;;;;;;18.73;49.55;101299.31;5040443;28;20245;-59
2022/01/19 12:31:25;;;;;;;6.40;3.90;;;;;;;18.76;49.34;101284.28;5051998;28;20230;-59
2022/01/19 12:34:02;;;;;;;6.93;4.10;;;;;;;18.71;49.72;101289.41;5033383;28;20839;-59
2022/01/19 12:36:42;;;;;;;7.20;4.50;;;;;;;18.76;49.41;101295.72;5013602;28;20433;-59
2022/01/19 12:39:26;;;;;;;7.67;4.53;;;;;;;18.76;49.28;101277.72;5031124;28;20419;-59
2022/01/19 12:42:01;;;;;;;5.47;3.60;;;;;;;18.77;49.13;101285.13;5032296;28;20419;-59
2022/01/19 12:44:47;;;;;;;5.77;3.90;;;;;;;18.73;49.57;101267.84;5031047;28;20506;-59
2022/01/19 12:47:28;;;;;;;6.30;4.70;;;;;;;18.73;49.60;101273.56;5031466;28;20764;-59
2022/01/19 12:49:56;;;;;;;7.17;4.27;;;;;;;18.73;49.55;101267.84;5031158;28;20922;-59
2022/01/19 12:52:23;;;;;;;6.00;3.80;;;;;;;18.72;49.36;101266.16;5031529;28;20506;-59